LXGBLPMA

Guest
Details From LXGB - Gibraltar
To LPMA - Madeira
Flight Number -
Tags decoded
Created
Modified
Stats Distance 697 nm / 1,290 km
Max Altitude 0 ft / 0 m
Waypoints 10
Social Downloads 1
Likes 0
Share VATSIM

Download

Looking for another format? Having issues loading an existing format? Contact us
Advertisement - Login to hide

Notes

Requested: LXGB BARPA UB28 TNG UA621 BAMBA UN726 VFA UN747 NARTA B18 RULET UN975 SNT LPMA Unmatched points: B18

Route

LXGB BARPA UB28 TNG UA621 BAMBA UN726 VFA UN747 NARTA RULET UN975 SNT LPMA

ID Type Via Altitude Latitude Longitude Leg Dist Tot Dist Heading (true) Name
O LXGB APT - 0 ft / 0 m 36.15121˚ -5.34966˚ - 0 nm - Gibraltar
BARPA FIX - 0 ft / 0 m 35.83333˚ -5.66667˚ 24 nm 24 nm 219° / 219° -
TNG VOR UB28 (AWY-HI) 0 ft / 0 m 35.72889˚ -5.89083˚ 12 nm 37 nm 240° / 240° TANGER VOR-DME
BAMBA FIX UA621 (AWY-HI) 0 ft / 0 m 35.83333˚ -6.45083˚ 27 nm 65 nm 283° / 283° -
ORTOP FIX UN726 (AWY-HI) 0 ft / 0 m 36.02666˚ -7.38333˚ 46 nm 111 nm 285° / 284° -
VFA VOR UN726 (AWY-HI) 0 ft / 0 m 37.01352˚ -7.97501˚ 65 nm 177 nm 334° / 334° FARO VOR-DME
NARTA FIX UN747 (AWY-HI) 0 ft / 0 m 36.05639˚ -12.55806˚ 228 nm 406 nm 257° / 254° -
RULET FIX - 0 ft / 0 m 34.25167˚ -14.91556˚ 158 nm 564 nm 228° / 226° -
SNT VOR UN975 (AWY-HI) 0 ft / 0 m 33.09028˚ -16.35056˚ 100 nm 664 nm 226° / 225° PORTO SANTO VOR-DME
O LPMA APT - 0 ft / 0 m 32.69770˚ -16.77445˚ 31 nm 696 nm 222° / 222° Madeira

Altitude Profile

Advertisement - Login to hide

Weather


0- 5 10 15 20 25 30 35+ Temperature / ° C

Clouds and Precipitation
Forecast for 2017-12-14 18:00 UTC. Updated an hour ago

Ground ~20,000 ft ~40,000 ft Winds

LXGB

Details ICAO LXGB (GIB)
Name Gibraltar
Region Gibralter
Timezone Europe/Gibraltar (UTC+1.0)
Stats Elevation 15 ft / 5 m (AMSL)
Location 36.151209° -5.349664°
Runways 1
Magnetic Variation 1.123° W

METAR

LXGB 141750Z 27015KT 9999 FEW018 SCT180 BKN220 15/11 Q1022 NOSIG

Decode

TAF

Not found

Departure Runways

ID Width Length Bearing (true) Bearing (mag) Surface Threshold Offset Overrun Length
27 151 ft / 46 m 5,992 ft / 1,826 m 267.56° 268.68° Asphalt 367 ft / 112 m 89 ft / 27 m
9 151 ft / 46 m 5,992 ft / 1,826 m 87.54° 88.66° Asphalt 299 ft / 91 m 52 ft / 16 m

LPMA

Details ICAO LPMA (FNC)
Name Madeira
Region Portugal
Timezone Atlantic/Madeira (UTC+0.0)
Stats Elevation 192 ft / 59 m (AMSL)
Location 32.697704° -16.774449°
Runways 1
Magnetic Variation 4.982° W

METAR

LPMA 141830Z 01008KT 350V050 9999 SCT015 18/14 Q1028

Decode

TAF

TAF LPMA 141700Z 1418/1518 01010KT 9999 SCT015 TEMPO 1418/1518 BKN015

Decode

Destination Runways

ID Width Length Bearing (true) Bearing (mag) Surface Threshold Offset Overrun Length
05 141 ft / 43 m 8,683 ft / 2,647 m 42.98° 47.96° Asphalt 472 ft / 144 m 0 ft / 0 m
23 141 ft / 43 m 8,683 ft / 2,647 m 222.99° 227.97° Asphalt 466 ft / 142 m 0 ft / 0 m

Popular Alternatives